sensor_id;sensor_type;location;lat;lon;timestamp;temperature;humidity
584;HTU21D;27024;54.068;12.116;2023-08-08T00:01:14;13.60;118.99
584;HTU21D;27024;54.068;12.116;2023-08-08T00:03:41;13.60;118.99
584;HTU21D;27024;54.068;12.116;2023-08-08T00:06:08;13.61;118.99
584;HTU21D;27024;54.068;12.116;2023-08-08T00:08:36;13.51;118.99
584;HTU21D;27024;54.068;12.116;2023-08-08T00:11:02;13.49;118.99
584;HTU21D;27024;54.068;12.116;2023-08-08T00:13:29;13.48;118.99
584;HTU21D;27024;54.068;12.116;2023-08-08T00:15:56;13.43;118.99
584;HTU21D;27024;54.068;12.116;2023-08-08T00:18:23;13.39;118.99
584;HTU21D;27024;54.068;12.116;2023-08-08T00:20:50;13.43;118.99
584;HTU21D;27024;54.068;12.116;2023-08-08T00:23:17;13.33;118.99
584;HTU21D;27024;54.068;12.116;2023-08-08T00:25:44;13.27;118.99
584;HTU21D;27024;54.068;12.116;2023-08-08T00:28:16;12.93;118.99
584;HTU21D;27024;54.068;12.116;2023-08-08T00:30:44;12.82;118.99
584;HTU21D;27024;54.068;12.116;2023-08-08T00:33:11;12.75;118.99
584;HTU21D;27024;54.068;12.116;2023-08-08T00:35:38;12.59;118.99
584;HTU21D;27024;54.068;12.116;2023-08-08T00:38:05;12.61;118.99
584;HTU21D;27024;54.068;12.116;2023-08-08T00:40:31;12.55;118.99
584;HTU21D;27024;54.068;12.116;2023-08-08T00:42:58;12.37;118.99
584;HTU21D;27024;54.068;12.116;2023-08-08T00:45:25;12.34;118.99
584;HTU21D;27024;54.068;12.116;2023-08-08T00:47:53;12.33;118.99
584;HTU21D;27024;54.068;12.116;2023-08-08T00:50:20;12.21;118.99
584;HTU21D;27024;54.068;12.116;2023-08-08T00:52:47;12.20;118.99
584;HTU21D;27024;54.068;12.116;2023-08-08T00:55:14;12.16;118.99
584;HTU21D;27024;54.068;12.116;2023-08-08T00:57:41;12.14;118.99
584;HTU21D;27024;54.068;12.116;2023-08-08T01:00:08;12.15;118.99
584;HTU21D;27024;54.068;12.116;2023-08-08T01:02:37;12.12;118.99
584;HTU21D;27024;54.068;12.116;2023-08-08T01:05:05;12.04;118.99
584;HTU21D;27024;54.068;12.116;2023-08-08T01:07:46;12.04;118.99
584;HTU21D;27024;54.068;12.116;2023-08-08T01:10:16;12.01;118.99
584;HTU21D;27024;54.068;12.116;2023-08-08T01:12:53;12.00;118.99
584;HTU21D;27024;54.068;12.116;2023-08-08T01:15:21;12.06;118.99
584;HTU21D;27024;54.068;12.116;2023-08-08T01:17:48;12.03;118.99
584;HTU21D;27024;54.068;12.116;2023-08-08T01:20:18;12.04;118.99
584;HTU21D;27024;54.068;12.116;2023-08-08T01:22:58;12.01;118.99
584;HTU21D;27024;54.068;12.116;2023-08-08T01:25:30;11.97;118.99
584;HTU21D;27024;54.068;12.116;2023-08-08T01:27:57;11.99;118.99
584;HTU21D;27024;54.068;12.116;2023-08-08T01:30:24;11.92;118.99
584;HTU21D;27024;54.068;12.116;2023-08-08T01:32:51;11.90;118.99
584;HTU21D;27024;54.068;12.116;2023-08-08T01:35:18;11.87;118.99
584;HTU21D;27024;54.068;12.116;2023-08-08T01:37:49;11.91;118.99
584;HTU21D;27024;54.068;12.116;2023-08-08T01:40:17;11.85;118.99
584;HTU21D;27024;54.068;12.116;2023-08-08T01:42:47;11.89;118.99
584;HTU21D;27024;54.068;12.116;2023-08-08T01:45:15;11.86;118.99
584;HTU21D;27024;54.068;12.116;2023-08-08T01:47:43;11.88;118.99
584;HTU21D;27024;54.068;12.116;2023-08-08T01:50:15;11.92;118.99
584;HTU21D;27024;54.068;12.116;2023-08-08T01:52:42;11.85;118.99
584;HTU21D;27024;54.068;12.116;2023-08-08T01:55:09;11.79;118.99
584;HTU21D;27024;54.068;12.116;2023-08-08T01:57:36;11.76;118.99
584;HTU21D;27024;54.068;12.116;2023-08-08T02:00:04;11.74;118.99
584;HTU21D;27024;54.068;12.116;2023-08-08T02:02:31;11.75;118.99
584;HTU21D;27024;54.068;12.116;2023-08-08T02:04:58;11.68;118.99
584;HTU21D;27024;54.068;12.116;2023-08-08T02:07:25;11.72;118.99
584;HTU21D;27024;54.068;12.116;2023-08-08T02:09:51;11.69;118.99
584;HTU21D;27024;54.068;12.116;2023-08-08T02:12:18;11.62;118.99
584;HTU21D;27024;54.068;12.116;2023-08-08T02:14:45;11.64;118.99
584;HTU21D;27024;54.068;12.116;2023-08-08T02:17:12;11.60;118.99
584;HTU21D;27024;54.068;12.116;2023-08-08T02:19:39;11.53;118.99
584;HTU21D;27024;54.068;12.116;2023-08-08T02:22:05;11.55;118.99
584;HTU21D;27024;54.068;12.116;2023-08-08T02:24:32;11.58;118.99
584;HTU21D;27024;54.068;12.116;2023-08-08T02:26:59;11.59;118.99
584;HTU21D;27024;54.068;12.116;2023-08-08T02:29:26;11.49;118.99
584;HTU21D;27024;54.068;12.116;2023-08-08T02:31:52;11.48;118.99
584;HTU21D;27024;54.068;12.116;2023-08-08T02:34:20;11.55;118.99
584;HTU21D;27024;54.068;12.116;2023-08-08T02:36:47;11.49;118.99
584;HTU21D;27024;54.068;12.116;2023-08-08T02:39:15;11.54;118.99
584;HTU21D;27024;54.068;12.116;2023-08-08T02:41:42;11.54;118.99
584;HTU21D;27024;54.068;12.116;2023-08-08T02:44:09;11.54;118.99
584;HTU21D;27024;54.068;12.116;2023-08-08T02:46:36;11.54;118.99
584;HTU21D;27024;54.068;12.116;2023-08-08T02:49:04;11.54;118.99
584;HTU21D;27024;54.068;12.116;2023-08-08T02:51:31;11.53;118.99
584;HTU21D;27024;54.068;12.116;2023-08-08T02:53:58;11.56;118.99
584;HTU21D;27024;54.068;12.116;2023-08-08T02:56:24;11.49;118.99
584;HTU21D;27024;54.068;12.116;2023-08-08T02:58:51;11.52;118.99
584;HTU21D;27024;54.068;12.116;2023-08-08T03:01:18;11.46;118.99
584;HTU21D;27024;54.068;12.116;2023-08-08T03:03:45;11.48;118.99
584;HTU21D;27024;54.068;12.116;2023-08-08T03:06:13;11.52;118.99
584;HTU21D;27024;54.068;12.116;2023-08-08T03:08:40;11.51;118.99
584;HTU21D;27024;54.068;12.116;2023-08-08T03:11:07;11.54;118.99
584;HTU21D;27024;54.068;12.116;2023-08-08T03:13:34;11.41;118.99
584;HTU21D;27024;54.068;12.116;2023-08-08T03:16:01;11.44;118.99
584;HTU21D;27024;54.068;12.116;2023-08-08T03:18:28;11.40;118.99
584;HTU21D;27024;54.068;12.116;2023-08-08T03:20:55;11.47;118.99
584;HTU21D;27024;54.068;12.116;2023-08-08T03:23:22;11.47;118.99
584;HTU21D;27024;54.068;12.116;2023-08-08T03:25:50;11.46;118.99
584;HTU21D;27024;54.068;12.116;2023-08-08T03:28:17;11.44;118.99
584;HTU21D;27024;54.068;12.116;2023-08-08T03:30:44;11.48;118.99
584;HTU21D;27024;54.068;12.116;2023-08-08T03:33:10;11.47;118.99
584;HTU21D;27024;54.068;12.116;2023-08-08T03:35:37;11.48;118.99
584;HTU21D;27024;54.068;12.116;2023-08-08T03:38:04;11.45;118.99
584;HTU21D;27024;54.068;12.116;2023-08-08T03:40:31;11.49;118.99
584;HTU21D;27024;54.068;12.116;2023-08-08T03:42:58;11.47;118.99
584;HTU21D;27024;54.068;12.116;2023-08-08T03:45:25;11.46;118.99
584;HTU21D;27024;54.068;12.116;2023-08-08T03:47:54;11.44;118.99
584;HTU21D;27024;54.068;12.116;2023-08-08T03:50:21;11.42;118.99
584;HTU21D;27024;54.068;12.116;2023-08-08T03:52:48;11.41;118.99
584;HTU21D;27024;54.068;12.116;2023-08-08T03:55:15;11.45;118.99
584;HTU21D;27024;54.068;12.116;2023-08-08T03:57:42;11.42;118.99
584;HTU21D;27024;54.068;12.116;2023-08-08T04:00:09;11.46;118.99
584;HTU21D;27024;54.068;12.116;2023-08-08T04:02:38;11.44;118.99
584;HTU21D;27024;54.068;12.116;2023-08-08T04:05:05;11.41;118.99
584;HTU21D;27024;54.068;12.116;2023-08-08T04:07:33;11.43;118.99
584;HTU21D;27024;54.068;12.116;2023-08-08T04:09:59;11.47;118.99
584;HTU21D;27024;54.068;12.116;2023-08-08T04:12:27;11.51;118.99
584;HTU21D;27024;54.068;12.116;2023-08-08T04:14:54;11.48;118.99
584;HTU21D;27024;54.068;12.116;2023-08-08T04:17:20;11.52;118.99
584;HTU21D;27024;54.068;12.116;2023-08-08T04:19:47;11.57;118.99
584;HTU21D;27024;54.068;12.116;2023-08-08T04:22:14;11.57;118.99
584;HTU21D;27024;54.068;12.116;2023-08-08T04:24:42;11.60;118.99
584;HTU21D;27024;54.068;12.116;2023-08-08T04:27:09;11.66;118.99
584;HTU21D;27024;54.068;12.116;2023-08-08T04:29:36;11.66;118.99
584;HTU21D;27024;54.068;12.116;2023-08-08T04:32:03;11.71;118.99
584;HTU21D;27024;54.068;12.116;2023-08-08T04:34:30;11.78;118.99
584;HTU21D;27024;54.068;12.116;2023-08-08T04:36:57;11.86;118.99
584;HTU21D;27024;54.068;12.116;2023-08-08T04:39:24;11.91;118.99
584;HTU21D;27024;54.068;12.116;2023-08-08T04:41:51;12.02;118.99
584;HTU21D;27024;54.068;12.116;2023-08-08T04:44:18;12.17;118.99
584;HTU21D;27024;54.068;12.116;2023-08-08T04:46:44;12.19;118.99
584;HTU21D;27024;54.068;12.116;2023-08-08T04:49:11;12.29;118.99
584;HTU21D;27024;54.068;12.116;2023-08-08T04:51:38;12.46;118.99
584;HTU21D;27024;54.068;12.116;2023-08-08T04:54:05;12.60;118.99
584;HTU21D;27024;54.068;12.116;2023-08-08T04:56:32;12.62;118.99
584;HTU21D;27024;54.068;12.116;2023-08-08T04:58:59;12.65;118.99
584;HTU21D;27024;54.068;12.116;2023-08-08T05:01:26;12.81;118.99
584;HTU21D;27024;54.068;12.116;2023-08-08T05:03:53;12.99;118.99
584;HTU21D;27024;54.068;12.116;2023-08-08T05:06:22;12.89;118.99
584;HTU21D;27024;54.068;12.116;2023-08-08T05:08:51;12.92;118.99
584;HTU21D;27024;54.068;12.116;2023-08-08T05:11:18;12.92;118.99
584;HTU21D;27024;54.068;12.116;2023-08-08T05:13:44;12.86;118.99
584;HTU21D;27024;54.068;12.116;2023-08-08T05:16:11;12.88;118.99
584;HTU21D;27024;54.068;12.116;2023-08-08T05:18:38;12.78;118.99
584;HTU21D;27024;54.068;12.116;2023-08-08T05:21:05;12.76;118.99
584;HTU21D;27024;54.068;12.116;2023-08-08T05:23:32;12.74;118.99
584;HTU21D;27024;54.068;12.116;2023-08-08T05:25:59;12.67;118.99
584;HTU21D;27024;54.068;12.116;2023-08-08T05:28:26;12.63;118.99
584;HTU21D;27024;54.068;12.116;2023-08-08T05:30:53;12.65;118.99
584;HTU21D;27024;54.068;12.116;2023-08-08T05:33:20;12.64;118.99
584;HTU21D;27024;54.068;12.116;2023-08-08T05:35:46;12.75;118.99
584;HTU21D;27024;54.068;12.116;2023-08-08T05:38:13;12.88;118.99
584;HTU21D;27024;54.068;12.116;2023-08-08T05:40:41;13.06;118.99
584;HTU21D;27024;54.068;12.116;2023-08-08T05:43:08;13.11;118.99
584;HTU21D;27024;54.068;12.116;2023-08-08T05:45:35;13.99;118.99
584;HTU21D;27024;54.068;12.116;2023-08-08T05:48:02;14.59;118.99
584;HTU21D;27024;54.068;12.116;2023-08-08T05:50:29;14.50;118.99
584;HTU21D;27024;54.068;12.116;2023-08-08T05:52:56;14.25;118.99
584;HTU21D;27024;54.068;12.116;2023-08-08T05:55:23;14.64;118.99
584;HTU21D;27024;54.068;12.116;2023-08-08T05:57:50;14.52;118.99
584;HTU21D;27024;54.068;12.116;2023-08-08T06:00:17;14.17;118.99
584;HTU21D;27024;54.068;12.116;2023-08-08T06:02:44;14.12;118.99
584;HTU21D;27024;54.068;12.116;2023-08-08T06:05:11;13.86;118.99
584;HTU21D;27024;54.068;12.116;2023-08-08T06:07:39;13.95;118.99
584;HTU21D;27024;54.068;12.116;2023-08-08T06:10:06;14.13;118.99
584;HTU21D;27024;54.068;12.116;2023-08-08T06:12:34;14.28;118.99
584;HTU21D;27024;54.068;12.116;2023-08-08T06:15:02;14.22;118.99
584;HTU21D;27024;54.068;12.116;2023-08-08T06:17:30;14.26;118.99
584;HTU21D;27024;54.068;12.116;2023-08-08T06:19:57;14.39;118.99
584;HTU21D;27024;54.068;12.116;2023-08-08T06:22:24;14.50;118.99
584;HTU21D;27024;54.068;12.116;2023-08-08T06:24:51;14.53;118.99
584;HTU21D;27024;54.068;12.116;2023-08-08T06:27:18;14.27;118.99
584;HTU21D;27024;54.068;12.116;2023-08-08T06:29:45;14.41;118.99
584;HTU21D;27024;54.068;12.116;2023-08-08T06:32:12;14.48;118.99
584;HTU21D;27024;54.068;12.116;2023-08-08T06:34:39;14.48;118.99
584;HTU21D;27024;54.068;12.116;2023-08-08T06:37:06;14.25;118.99
584;HTU21D;27024;54.068;12.116;2023-08-08T06:39:33;14.24;118.99
584;HTU21D;27024;54.068;12.116;2023-08-08T06:42:00;14.37;118.99
584;HTU21D;27024;54.068;12.116;2023-08-08T06:44:27;14.41;118.99
584;HTU21D;27024;54.068;12.116;2023-08-08T06:46:54;14.36;118.99
584;HTU21D;27024;54.068;12.116;2023-08-08T06:49:21;14.47;118.99
584;HTU21D;27024;54.068;12.116;2023-08-08T06:51:48;14.36;118.99
584;HTU21D;27024;54.068;12.116;2023-08-08T06:54:15;14.26;118.99
584;HTU21D;27024;54.068;12.116;2023-08-08T06:56:42;14.19;118.99
584;HTU21D;27024;54.068;12.116;2023-08-08T06:59:09;14.29;118.99
584;HTU21D;27024;54.068;12.116;2023-08-08T07:01:36;14.38;118.99
584;HTU21D;27024;54.068;12.116;2023-08-08T07:04:03;14.38;118.99
584;HTU21D;27024;54.068;12.116;2023-08-08T07:06:30;15.16;118.99
584;HTU21D;27024;54.068;12.116;2023-08-08T07:08:56;15.56;118.99
584;HTU21D;27024;54.068;12.116;2023-08-08T07:11:23;15.98;118.99
584;HTU21D;27024;54.068;12.116;2023-08-08T07:13:51;15.69;118.99
584;HTU21D;27024;54.068;12.116;2023-08-08T07:16:18;15.42;118.99
584;HTU21D;27024;54.068;12.116;2023-08-08T07:18:45;15.58;118.99
584;HTU21D;27024;54.068;12.116;2023-08-08T07:21:14;15.51;118.99
584;HTU21D;27024;54.068;12.116;2023-08-08T07:23:41;15.24;118.99
584;HTU21D;27024;54.068;12.116;2023-08-08T07:26:08;15.18;118.99
584;HTU21D;27024;54.068;12.116;2023-08-08T07:28:35;15.13;118.99
584;HTU21D;27024;54.068;12.116;2023-08-08T07:31:02;15.01;118.99
584;HTU21D;27024;54.068;12.116;2023-08-08T07:33:29;14.97;118.99
584;HTU21D;27024;54.068;12.116;2023-08-08T07:35:56;15.01;118.99
584;HTU21D;27024;54.068;12.116;2023-08-08T07:38:23;14.81;118.99
584;HTU21D;27024;54.068;12.116;2023-08-08T07:40:50;14.42;118.99
584;HTU21D;27024;54.068;12.116;2023-08-08T07:43:16;14.06;118.99
584;HTU21D;27024;54.068;12.116;2023-08-08T07:45:44;13.92;118.99
584;HTU21D;27024;54.068;12.116;2023-08-08T07:48:10;13.49;118.99
584;HTU21D;27024;54.068;12.116;2023-08-08T07:50:38;13.40;118.99
584;HTU21D;27024;54.068;12.116;2023-08-08T07:53:04;13.35;118.99
584;HTU21D;27024;54.068;12.116;2023-08-08T07:55:31;13.40;118.99
584;HTU21D;27024;54.068;12.116;2023-08-08T07:57:58;13.52;118.99
584;HTU21D;27024;54.068;12.116;2023-08-08T08:00:25;13.86;118.99
584;HTU21D;27024;54.068;12.116;2023-08-08T08:02:52;13.82;118.99
584;HTU21D;27024;54.068;12.116;2023-08-08T08:05:20;13.83;118.99
584;HTU21D;27024;54.068;12.116;2023-08-08T08:07:47;13.82;118.99
584;HTU21D;27024;54.068;12.116;2023-08-08T08:10:14;13.93;118.99
584;HTU21D;27024;54.068;12.116;2023-08-08T08:12:41;14.24;118.99
584;HTU21D;27024;54.068;12.116;2023-08-08T08:15:09;14.43;118.99
584;HTU21D;27024;54.068;12.116;2023-08-08T08:17:36;14.65;118.99
584;HTU21D;27024;54.068;12.116;2023-08-08T08:20:04;14.91;118.99
584;HTU21D;27024;54.068;12.116;2023-08-08T08:22:33;15.08;118.99
584;HTU21D;27024;54.068;12.116;2023-08-08T08:25:00;15.01;118.99
584;HTU21D;27024;54.068;12.116;2023-08-08T08:27:26;15.24;118.99
584;HTU21D;27024;54.068;12.116;2023-08-08T08:29:53;15.31;118.99
584;HTU21D;27024;54.068;12.116;2023-08-08T08:32:20;15.39;118.99
584;HTU21D;27024;54.068;12.116;2023-08-08T08:34:47;15.26;118.99
584;HTU21D;27024;54.068;12.116;2023-08-08T08:37:13;15.34;118.99
584;HTU21D;27024;54.068;12.116;2023-08-08T08:39:40;15.22;118.99
584;HTU21D;27024;54.068;12.116;2023-08-08T08:42:09;15.16;118.99
584;HTU21D;27024;54.068;12.116;2023-08-08T08:44:40;15.16;118.99
584;HTU21D;27024;54.068;12.116;2023-08-08T08:47:08;15.13;118.99
584;HTU21D;27024;54.068;12.116;2023-08-08T08:49:39;15.41;118.99
584;HTU21D;27024;54.068;12.116;2023-08-08T08:52:08;15.78;118.99
584;HTU21D;27024;54.068;12.116;2023-08-08T08:54:36;16.04;118.99
584;HTU21D;27024;54.068;12.116;2023-08-08T08:57:03;16.10;118.99
584;HTU21D;27024;54.068;12.116;2023-08-08T08:59:30;16.30;118.99
584;HTU21D;27024;54.068;12.116;2023-08-08T09:01:57;16.19;118.99
584;HTU21D;27024;54.068;12.116;2023-08-08T09:04:25;15.86;118.99
584;HTU21D;27024;54.068;12.116;2023-08-08T09:06:52;15.70;118.99
584;HTU21D;27024;54.068;12.116;2023-08-08T09:09:22;15.85;118.99
584;HTU21D;27024;54.068;12.116;2023-08-08T09:11:51;16.21;118.99
584;HTU21D;27024;54.068;12.116;2023-08-08T09:14:23;16.60;118.99
584;HTU21D;27024;54.068;12.116;2023-08-08T09:16:52;16.64;118.99
584;HTU21D;27024;54.068;12.116;2023-08-08T09:19:24;16.56;118.99
584;HTU21D;27024;54.068;12.116;2023-08-08T09:21:52;16.90;118.99
584;HTU21D;27024;54.068;12.116;2023-08-08T09:24:19;17.75;118.99
584;HTU21D;27024;54.068;12.116;2023-08-08T09:26:46;17.43;118.99
584;HTU21D;27024;54.068;12.116;2023-08-08T09:29:14;17.23;118.99
584;HTU21D;27024;54.068;12.116;2023-08-08T09:31:46;17.11;118.99
584;HTU21D;27024;54.068;12.116;2023-08-08T09:34:13;17.22;118.99
584;HTU21D;27024;54.068;12.116;2023-08-08T09:36:40;17.04;118.99
584;HTU21D;27024;54.068;12.116;2023-08-08T09:39:07;17.05;118.99
584;HTU21D;27024;54.068;12.116;2023-08-08T09:41:34;17.88;118.99
584;HTU21D;27024;54.068;12.116;2023-08-08T09:44:01;18.05;118.99
584;HTU21D;27024;54.068;12.116;2023-08-08T09:46:29;17.69;118.99
584;HTU21D;27024;54.068;12.116;2023-08-08T09:48:57;17.41;118.99
584;HTU21D;27024;54.068;12.116;2023-08-08T09:51:25;17.65;118.99
584;HTU21D;27024;54.068;12.116;2023-08-08T09:53:53;17.89;118.99
584;HTU21D;27024;54.068;12.116;2023-08-08T09:56:23;17.84;118.99
584;HTU21D;27024;54.068;12.116;2023-08-08T09:58:52;18.38;118.99
584;HTU21D;27024;54.068;12.116;2023-08-08T10:01:20;18.20;118.99
584;HTU21D;27024;54.068;12.116;2023-08-08T10:03:48;18.14;118.99
584;HTU21D;27024;54.068;12.116;2023-08-08T10:06:18;17.92;118.99
584;HTU21D;27024;54.068;12.116;2023-08-08T10:08:45;17.38;118.99
584;HTU21D;27024;54.068;12.116;2023-08-08T10:11:12;16.90;118.99
584;HTU21D;27024;54.068;12.116;2023-08-08T10:13:48;17.28;118.99
584;HTU21D;27024;54.068;12.116;2023-08-08T10:16:16;17.72;118.99
584;HTU21D;27024;54.068;12.116;2023-08-08T10:18:46;17.83;118.99
584;HTU21D;27024;54.068;12.116;2023-08-08T10:21:23;17.21;118.99
584;HTU21D;27024;54.068;12.116;2023-08-08T10:24:07;16.86;118.99
584;HTU21D;27024;54.068;12.116;2023-08-08T10:26:54;16.60;118.99
584;HTU21D;27024;54.068;12.116;2023-08-08T10:29:21;16.58;118.99
584;HTU21D;27024;54.068;12.116;2023-08-08T10:32:00;17.00;118.99
584;HTU21D;27024;54.068;12.116;2023-08-08T10:34:44;16.80;118.99
584;HTU21D;27024;54.068;12.116;2023-08-08T10:37:17;16.86;118.99
584;HTU21D;27024;54.068;12.116;2023-08-08T10:39:55;16.96;118.99
584;HTU21D;27024;54.068;12.116;2023-08-08T10:42:25;17.01;118.99
584;HTU21D;27024;54.068;12.116;2023-08-08T10:44:54;17.69;118.99
584;HTU21D;27024;54.068;12.116;2023-08-08T10:47:29;18.70;118.99
584;HTU21D;27024;54.068;12.116;2023-08-08T10:50:05;19.37;118.99
584;HTU21D;27024;54.068;12.116;2023-08-08T10:52:58;19.42;118.99
584;HTU21D;27024;54.068;12.116;2023-08-08T10:55:31;19.41;118.99
584;HTU21D;27024;54.068;12.116;2023-08-08T10:58:04;18.88;118.99
584;HTU21D;27024;54.068;12.116;2023-08-08T11:00:33;19.10;118.99
584;HTU21D;27024;54.068;12.116;2023-08-08T11:03:02;19.12;118.99
584;HTU21D;27024;54.068;12.116;2023-08-08T11:05:32;18.81;118.99
584;HTU21D;27024;54.068;12.116;2023-08-08T11:08:01;18.13;118.99
584;HTU21D;27024;54.068;12.116;2023-08-08T11:10:28;18.04;118.99
584;HTU21D;27024;54.068;12.116;2023-08-08T11:13:04;17.69;118.99
584;HTU21D;27024;54.068;12.116;2023-08-08T11:15:35;17.77;118.99
584;HTU21D;27024;54.068;12.116;2023-08-08T11:18:03;17.75;118.99
584;HTU21D;27024;54.068;12.116;2023-08-08T11:20:32;17.52;118.99
584;HTU21D;27024;54.068;12.116;2023-08-08T11:23:00;17.45;118.99
584;HTU21D;27024;54.068;12.116;2023-08-08T11:25:29;17.33;118.99
584;HTU21D;27024;54.068;12.116;2023-08-08T11:27:57;17.47;118.99
584;HTU21D;27024;54.068;12.116;2023-08-08T11:30:28;17.60;118.99
584;HTU21D;27024;54.068;12.116;2023-08-08T11:32:55;17.60;118.99
584;HTU21D;27024;54.068;12.116;2023-08-08T11:35:26;17.39;118.99
584;HTU21D;27024;54.068;12.116;2023-08-08T11:37:56;16.51;118.99
584;HTU21D;27024;54.068;12.116;2023-08-08T11:40:25;15.92;118.99
584;HTU21D;27024;54.068;12.116;2023-08-08T11:42:53;15.58;118.99
584;HTU21D;27024;54.068;12.116;2023-08-08T11:45:21;15.26;118.99
584;HTU21D;27024;54.068;12.116;2023-08-08T11:47:49;14.60;118.99
584;HTU21D;27024;54.068;12.116;2023-08-08T11:50:19;14.22;118.99
584;HTU21D;27024;54.068;12.116;2023-08-08T11:52:46;14.22;118.99
584;HTU21D;27024;54.068;12.116;2023-08-08T11:55:13;14.24;118.99
584;HTU21D;27024;54.068;12.116;2023-08-08T11:57:40;14.13;118.99
584;HTU21D;27024;54.068;12.116;2023-08-08T12:00:09;14.13;118.99
584;HTU21D;27024;54.068;12.116;2023-08-08T12:02:41;14.47;118.99
584;HTU21D;27024;54.068;12.116;2023-08-08T12:05:10;14.85;118.99
584;HTU21D;27024;54.068;12.116;2023-08-08T12:07:40;15.90;118.99
584;HTU21D;27024;54.068;12.116;2023-08-08T12:10:22;15.83;118.99
584;HTU21D;27024;54.068;12.116;2023-08-08T12:12:56;16.29;118.99
584;HTU21D;27024;54.068;12.116;2023-08-08T12:15:31;16.30;118.99
584;HTU21D;27024;54.068;12.116;2023-08-08T12:17:58;16.15;118.99
584;HTU21D;27024;54.068;12.116;2023-08-08T12:20:30;16.24;118.99
584;HTU21D;27024;54.068;12.116;2023-08-08T12:22:58;16.28;118.99
584;HTU21D;27024;54.068;12.116;2023-08-08T12:25:25;16.37;118.99
584;HTU21D;27024;54.068;12.116;2023-08-08T12:27:52;16.51;118.99
584;HTU21D;27024;54.068;12.116;2023-08-08T12:30:19;16.60;118.99
584;HTU21D;27024;54.068;12.116;2023-08-08T12:32:46;16.63;118.99
584;HTU21D;27024;54.068;12.116;2023-08-08T12:35:13;16.60;118.99
584;HTU21D;27024;54.068;12.116;2023-08-08T12:37:42;16.67;118.99
584;HTU21D;27024;54.068;12.116;2023-08-08T12:40:09;16.55;118.99
584;HTU21D;27024;54.068;12.116;2023-08-08T12:42:36;16.34;118.99
584;HTU21D;27024;54.068;12.116;2023-08-08T12:45:04;16.18;118.99
584;HTU21D;27024;54.068;12.116;2023-08-08T12:47:31;15.68;118.99
584;HTU21D;27024;54.068;12.116;2023-08-08T12:49:59;15.62;118.99
584;HTU21D;27024;54.068;12.116;2023-08-08T12:52:25;15.69;118.99
584;HTU21D;27024;54.068;12.116;2023-08-08T12:54:52;15.54;118.99
584;HTU21D;27024;54.068;12.116;2023-08-08T12:57:19;15.53;118.99
584;HTU21D;27024;54.068;12.116;2023-08-08T12:59:46;15.53;118.99
584;HTU21D;27024;54.068;12.116;2023-08-08T13:02:13;15.48;118.99
584;HTU21D;27024;54.068;12.116;2023-08-08T13:04:40;15.47;118.99
584;HTU21D;27024;54.068;12.116;2023-08-08T13:07:07;15.51;118.99
584;HTU21D;27024;54.068;12.116;2023-08-08T13:09:34;15.42;118.99
584;HTU21D;27024;54.068;12.116;2023-08-08T13:12:01;15.15;118.99
584;HTU21D;27024;54.068;12.116;2023-08-08T13:14:28;15.62;118.99
584;HTU21D;27024;54.068;12.116;2023-08-08T13:16:55;15.92;118.99
584;HTU21D;27024;54.068;12.116;2023-08-08T13:19:22;15.70;118.99
584;HTU21D;27024;54.068;12.116;2023-08-08T13:21:52;15.76;118.99
584;HTU21D;27024;54.068;12.116;2023-08-08T13:24:20;15.58;118.99
584;HTU21D;27024;54.068;12.116;2023-08-08T13:26:50;15.42;118.99
584;HTU21D;27024;54.068;12.116;2023-08-08T13:29:17;15.33;118.99
584;HTU21D;27024;54.068;12.116;2023-08-08T13:31:44;15.28;118.99
584;HTU21D;27024;54.068;12.116;2023-08-08T13:34:10;15.07;118.99
584;HTU21D;27024;54.068;12.116;2023-08-08T13:36:37;14.92;118.99
584;HTU21D;27024;54.068;12.116;2023-08-08T13:39:04;14.72;118.99
584;HTU21D;27024;54.068;12.116;2023-08-08T13:41:31;14.57;118.99
584;HTU21D;27024;54.068;12.116;2023-08-08T13:43:58;14.30;118.99
584;HTU21D;27024;54.068;12.116;2023-08-08T13:46:25;14.11;118.99
584;HTU21D;27024;54.068;12.116;2023-08-08T13:48:52;13.64;118.99
584;HTU21D;27024;54.068;12.116;2023-08-08T13:51:19;12.88;118.99
584;HTU21D;27024;54.068;12.116;2023-08-08T13:53:46;12.36;118.99
584;HTU21D;27024;54.068;12.116;2023-08-08T13:56:15;12.35;118.99
584;HTU21D;27024;54.068;12.116;2023-08-08T13:58:42;12.14;118.99
584;HTU21D;27024;54.068;12.116;2023-08-08T14:01:09;11.94;118.99
584;HTU21D;27024;54.068;12.116;2023-08-08T14:03:36;12.04;118.99
584;HTU21D;27024;54.068;12.116;2023-08-08T14:06:03;11.87;118.99
584;HTU21D;27024;54.068;12.116;2023-08-08T14:08:30;11.92;118.99
584;HTU21D;27024;54.068;12.116;2023-08-08T14:10:57;11.89;118.99
584;HTU21D;27024;54.068;12.116;2023-08-08T14:13:24;11.87;118.99
584;HTU21D;27024;54.068;12.116;2023-08-08T14:15:51;11.81;118.99
584;HTU21D;27024;54.068;12.116;2023-08-08T14:18:18;11.79;118.99
584;HTU21D;27024;54.068;12.116;2023-08-08T14:20:45;11.86;118.99
584;HTU21D;27024;54.068;12.116;2023-08-08T14:23:12;12.00;118.99
584;HTU21D;27024;54.068;12.116;2023-08-08T14:25:39;12.02;118.99
584;HTU21D;27024;54.068;12.116;2023-08-08T14:28:06;12.22;118.99
584;HTU21D;27024;54.068;12.116;2023-08-08T14:30:33;12.30;118.99
584;HTU21D;27024;54.068;12.116;2023-08-08T14:33:00;12.38;118.99
584;HTU21D;27024;54.068;12.116;2023-08-08T14:35:27;12.57;118.99
584;HTU21D;27024;54.068;12.116;2023-08-08T14:37:54;12.81;118.99
584;HTU21D;27024;54.068;12.116;2023-08-08T14:40:21;13.05;118.99
584;HTU21D;27024;54.068;12.116;2023-08-08T14:42:48;13.17;118.99
584;HTU21D;27024;54.068;12.116;2023-08-08T14:45:16;13.14;118.99
584;HTU21D;27024;54.068;12.116;2023-08-08T14:47:43;13.15;118.99
584;HTU21D;27024;54.068;12.116;2023-08-08T14:50:10;13.04;118.99
584;HTU21D;27024;54.068;12.116;2023-08-08T14:52:37;13.10;118.99
584;HTU21D;27024;54.068;12.116;2023-08-08T14:55:04;13.10;118.99
584;HTU21D;27024;54.068;12.116;2023-08-08T14:57:31;13.17;118.99
584;HTU21D;27024;54.068;12.116;2023-08-08T14:59:59;13.15;118.99
584;HTU21D;27024;54.068;12.116;2023-08-08T15:02:27;13.46;118.99
584;HTU21D;27024;54.068;12.116;2023-08-08T15:04:54;13.68;118.99
584;HTU21D;27024;54.068;12.116;2023-08-08T15:07:21;13.68;118.99
584;HTU21D;27024;54.068;12.116;2023-08-08T15:09:48;13.73;118.99
584;HTU21D;27024;54.068;12.116;2023-08-08T15:12:16;13.66;118.99
584;HTU21D;27024;54.068;12.116;2023-08-08T15:14:43;13.70;118.99
584;HTU21D;27024;54.068;12.116;2023-08-08T15:17:10;13.62;118.99
584;HTU21D;27024;54.068;12.116;2023-08-08T15:19:37;13.66;118.99